.
WxDataArchive / Data Records for 2015-11-02
2015-11-01 November 2015 2015-11-03

Data Records for Monday, 02 November 2015

Time	Temp	Chill	HIndex	Humid	Dewpt	 Wind 	HiWind	WindDir	Rain 	Barom
-----	----	-----	------	-----	-----	------	------	-------	-----	-----
00:00	48.0	48.0	48.0	86	44.0	0	0	---	0.00	29.996 
00:05	47.7	47.7	47.7	86	43.7	0	0	---	0.00	29.996 
00:10	47.4	47.4	47.4	86	43.4	0	0	---	0.00	29.996 
00:15	47.3	47.3	47.3	86	43.3	0	0	---	0.00	29.991 
00:20	47.0	47.0	47.0	86	43.0	0	0	---	0.00	29.991 
00:25	46.8	46.8	46.8	87	43.1	0	0	---	0.00	29.991 
00:30	46.7	46.7	46.7	87	43.0	0	0	---	0.00	29.990 
00:35	46.4	46.4	46.4	87	42.7	0	0	---	0.00	29.990 
00:40	46.2	46.2	46.2	87	42.5	0	0	---	0.00	29.990 
00:45	46.0	46.0	46.0	87	42.4	0	0	---	0.00	29.986 
00:50	45.8	45.8	45.8	88	42.5	0	0	---	0.00	29.986 
00:55	45.7	45.7	45.7	88	42.4	0	0	---	0.00	29.986 
01:00	45.5	45.5	45.5	88	42.2	0	0	---	0.00	29.991 
01:05	45.4	45.4	45.4	88	42.1	0	0	---	0.00	29.991 
01:10	45.1	45.1	45.1	88	41.8	0	0	---	0.00	29.991 
01:15	44.9	44.9	44.9	88	41.6	0	0	---	0.00	29.992 
01:20	44.6	44.6	44.6	88	41.3	0	0	---	0.00	29.992 
01:25	44.5	44.5	44.5	89	41.5	0	0	---	0.00	29.992 
01:30	44.5	44.5	44.5	89	41.5	0	0	---	0.00	29.992 
01:35	44.5	44.5	44.5	89	41.5	0	0	---	0.00	29.992 
01:40	44.3	44.3	44.3	90	41.6	0	0	---	0.00	29.992 
01:45	44.2	44.2	44.2	90	41.5	0	0	---	0.00	29.992 
01:50	43.9	43.9	43.9	90	41.2	0	0	---	0.00	29.992 
01:55	43.8	43.8	43.8	90	41.1	0	0	---	0.00	29.992 
02:00	43.6	43.6	43.6	90	40.9	0	0	---	0.00	29.998 
02:05	43.5	43.5	43.5	90	40.8	0	0	---	0.00	29.998 
02:10	43.5	43.5	43.5	91	41.0	0	0	---	0.00	29.998 
02:15	43.5	43.5	43.5	91	41.0	0	0	---	0.00	29.998 
02:20	43.3	43.3	43.3	91	40.9	0	0	---	0.00	29.998 
02:25	43.2	43.2	43.2	91	40.8	0	0	---	0.00	29.998 
02:30	43.2	43.2	43.2	91	40.8	0	0	---	0.00	30.006 
02:35	43.1	43.1	43.1	91	40.7	0	0	---	0.00	30.006 
02:40	42.9	42.9	42.9	91	40.5	0	0	---	0.00	30.006 
02:45	42.8	42.8	42.8	91	40.4	0	0	---	0.00	30.006 
02:50	42.6	42.6	42.6	91	40.2	0	0	---	0.00	30.006 
02:55	42.5	42.5	42.5	91	40.1	0	0	---	0.00	30.006 
03:00	42.3	42.3	42.3	91	39.9	0	0	---	0.00	30.003 
03:05	42.2	42.2	42.2	91	39.8	0	0	---	0.00	30.003 
03:10	42.2	42.2	42.2	92	40.0	0	0	---	0.00	30.003 
03:15	42.1	42.1	42.1	92	39.9	0	0	---	0.00	30.002 
03:20	41.9	41.9	41.9	92	39.7	0	0	---	0.00	30.002 
03:25	41.9	41.9	41.9	92	39.7	0	0	---	0.00	30.002 
03:30	41.9	41.9	41.9	92	39.7	0	0	---	0.00	30.001 
03:35	41.9	41.9	41.9	92	39.7	0	0	---	0.00	30.001 
03:40	41.8	41.8	41.8	92	39.6	0	0	---	0.00	30.001 
03:45	41.8	41.8	41.8	92	39.6	0	0	---	0.00	30.000 
03:50	41.6	41.6	41.6	92	39.5	0	0	---	0.00	30.000 
03:55	41.5	41.5	41.5	92	39.4	0	0	---	0.00	30.000 
04:00	41.3	41.3	41.3	92	39.2	0	0	---	0.00	30.003 
04:05	41.2	41.2	41.2	92	39.1	0	0	---	0.00	30.003 
04:10	41.1	41.1	41.1	92	39.0	0	0	---	0.00	30.003 
04:15	41.1	41.1	41.1	92	39.0	0	0	---	0.00	30.008 
04:20	40.9	40.9	40.9	92	38.8	0	0	---	0.00	30.008 
04:25	40.8	40.8	40.8	92	38.7	0	0	---	0.00	30.008 
04:30	40.8	40.8	40.8	92	38.7	0	0	---	0.00	30.003 
04:35	40.6	40.6	40.6	92	38.5	0	0	---	0.00	30.003 
04:40	40.6	40.6	40.6	92	38.5	0	0	---	0.00	30.003 
04:45	40.5	40.5	40.5	92	38.4	0	0	---	0.00	30.008 
04:50	40.5	40.5	40.5	92	38.4	0	0	---	0.00	30.008 
04:55	40.3	40.3	40.3	92	38.2	0	0	---	0.00	30.008 
05:00	40.3	40.3	40.3	92	38.2	0	0	---	0.00	30.005 
05:05	40.2	40.2	40.2	92	38.1	0	0	---	0.00	30.005 
05:10	40.1	40.1	40.1	92	38.0	0	0	---	0.00	30.005 
05:15	40.1	40.1	40.1	93	38.2	0	0	---	0.00	30.012 
05:20	40.2	40.2	40.2	93	38.3	0	0	---	0.00	30.012 
05:25	40.2	40.2	40.2	93	38.3	0	0	---	0.00	30.012 
05:30	40.1	40.1	40.1	93	38.2	0	0	---	0.00	30.019 
05:35	40.1	40.1	40.1	93	38.2	0	0	---	0.00	30.019 
05:40	39.9	39.9	39.9	93	38.0	0	0	---	0.00	30.019 
05:45	39.8	39.8	39.8	93	37.9	0	0	---	0.00	30.021 
05:50	39.8	39.8	39.8	93	37.9	0	0	---	0.00	30.021 
05:55	39.6	39.6	39.6	93	37.7	0	0	---	0.00	30.021 
06:00	39.5	39.5	39.5	93	37.6	0	0	---	0.00	30.022 
06:05	39.5	39.5	39.5	93	37.6	0	0	---	0.00	30.022 
06:10	39.5	39.5	39.5	93	37.6	0	0	---	0.00	30.022 
06:15	39.3	39.3	39.3	93	37.4	0	0	---	0.00	30.030 
06:20	39.3	39.3	39.3	93	37.4	0	0	---	0.00	30.030 
06:25	39.3	39.3	39.3	93	37.4	0	0	---	0.00	30.030 
06:30	39.2	39.2	39.2	93	37.3	0	0	---	0.00	30.027 
06:35	39.1	39.1	39.1	93	37.2	0	0	---	0.00	30.027 
06:40	39.1	39.1	39.1	93	37.2	0	0	---	0.00	30.027 
06:45	39.1	39.1	39.1	93	37.2	0	0	---	0.00	30.027 
06:50	38.9	38.9	38.9	93	37.1	0	0	---	0.00	30.027 
06:55	38.9	38.9	38.9	93	37.1	0	0	---	0.00	30.027 
07:00	38.8	38.8	38.8	93	37.0	0	0	---	0.00	30.027 
07:05	38.8	38.8	38.8	93	37.0	0	0	---	0.00	30.027 
07:10	38.8	38.8	38.8	93	37.0	0	0	---	0.00	30.027 
07:15	38.8	38.8	38.8	93	37.0	0	0	---	0.00	30.033 
07:20	38.8	38.8	38.8	93	37.0	0	0	---	0.00	30.033 
07:25	38.8	38.8	38.8	93	37.0	0	0	---	0.00	30.033 
07:30	38.8	38.8	38.8	93	37.0	0	0	---	0.00	30.033 
07:35	38.6	38.6	38.6	93	36.8	0	0	---	0.00	30.033 
07:40	38.8	38.8	38.8	93	37.0	0	0	---	0.00	30.033 
07:45	38.8	38.8	38.8	93	37.0	0	0	---	0.00	30.039 
07:50	38.8	38.8	38.8	94	37.2	0	0	---	0.00	30.039 
07:55	38.9	38.9	38.9	94	37.3	0	0	---	0.00	30.039 
08:00	39.1	39.1	39.1	94	37.5	0	0	---	0.00	30.044 
08:05	39.5	39.5	39.5	94	37.9	0	0	---	0.00	30.044 
08:10	40.2	40.2	40.2	95	38.9	0	0	---	0.00	30.044 
08:15	40.9	40.9	40.9	95	39.6	0	0	---	0.00	30.050 
08:20	41.6	41.6	41.6	95	40.3	0	0	---	0.00	30.050 
08:25	42.6	42.6	42.6	95	41.3	0	0	---	0.00	30.050 
08:30	43.6	43.6	43.6	96	42.5	0	0	---	0.00	30.056 
08:35	44.8	44.8	44.8	96	43.7	0	0	---	0.00	30.056 
08:40	45.7	45.7	45.7	96	44.6	0	0	---	0.00	30.056 
08:45	46.4	46.4	46.4	95	45.0	0	0	---	0.00	30.055 
08:50	47.0	47.0	47.0	95	45.6	0	0	---	0.00	30.055 
08:55	47.6	47.6	47.6	95	46.2	0	0	---	0.00	30.055 
09:00	48.2	48.2	48.2	95	46.8	0	1	135	0.00	30.056 
09:05	49.1	49.1	49.1	95	47.7	0	1	135	0.00	30.056 
09:10	50.1	50.1	50.1	94	48.4	0	1	135	0.00	30.056 
09:15	51.1	51.1	51.1	92	48.9	0	1	135	0.00	30.050 
09:20	52.2	52.2	52.2	89	49.1	0	1	135	0.00	30.050 
09:25	53.1	53.1	53.1	87	49.3	0	1	135	0.00	30.050 
09:30	53.9	53.9	53.9	84	49.2	0	1	135	0.00	30.042 
09:35	54.7	54.7	54.7	81	49.0	0	1	68	0.00	30.042 
09:40	55.7	55.7	55.7	78	48.9	0	0	---	0.00	30.042 
09:45	56.6	56.6	56.6	76	49.1	0	1	68	0.00	30.039 
09:50	57.5	57.5	57.5	71	48.2	0	1	68	0.00	30.039 
09:55	58.4	58.4	58.4	69	48.3	0	1	68	0.00	30.039 
10:00	59.3	59.3	59.3	65	47.5	0	1	68	0.00	30.038 
10:05	60.1	60.1	60.1	64	47.9	0	1	68	0.00	30.038 
10:10	60.7	60.7	60.7	63	48.0	0	1	68	0.00	30.038 
10:15	61.2	61.2	61.2	62	48.1	0	2	68	0.00	30.035 
10:20	61.5	61.5	61.5	62	48.4	0	1	68	0.00	30.035 
10:25	62.0	62.0	62.0	62	48.8	0	1	68	0.00	30.035 
10:30	62.6	62.6	62.6	61	49.0	0	2	68	0.00	30.033 
10:35	62.9	62.9	62.9	62	49.7	0	1	68	0.00	30.033 
10:40	63.2	63.2	63.2	60	49.1	0	2	68	0.00	30.033 
10:45	63.4	63.4	63.4	61	49.7	0	2	68	0.00	30.035 
10:50	63.5	63.5	63.5	60	49.4	0	1	68	0.00	30.035 
10:55	63.7	63.7	63.7	60	49.5	0	1	68	0.00	30.035 
11:00	64.0	64.0	64.0	60	49.8	0	1	68	0.00	30.037 
11:05	64.3	64.3	64.3	59	49.7	0	1	68	0.00	30.037 
11:10	64.5	64.5	64.5	58	49.4	0	1	68	0.00	30.037 
11:15	64.5	64.5	64.5	58	49.4	0	1	68	0.00	30.039 
11:20	64.5	64.5	64.5	58	49.4	0	4	68	0.00	30.039 
11:25	64.5	64.5	64.5	59	49.8	0	1	45	0.00	30.039 
11:30	64.7	64.7	64.7	58	49.6	0	1	45	0.00	30.039 
11:35	64.8	64.8	64.8	58	49.7	0	2	45	0.00	30.039 
11:40	65.0	65.0	65.0	59	50.3	0	1	45	0.00	30.039 
11:45	65.2	65.2	65.2	56	49.1	0	1	45	0.00	30.028 
11:50	65.5	65.5	65.5	56	49.4	0	1	45	0.00	30.028 
11:55	65.6	65.6	65.6	55	49.0	0	2	68	0.00	30.028 
12:00	65.6	65.6	65.6	51	47.0	1	3	68	0.00	30.022 
12:05	65.8	65.8	65.8	51	47.2	1	3	45	0.00	30.022 
12:10	65.8	65.8	65.8	50	46.6	0	2	248	0.00	30.022 
12:15	66.0	66.0	66.0	50	46.8	0	1	248	0.00	30.014 
12:20	66.1	66.1	66.1	50	46.9	0	2	248	0.00	30.014 
12:25	66.4	66.4	66.4	51	47.7	0	1	248	0.00	30.014 
12:30	66.8	66.8	66.8	49	47.0	0	1	248	0.00	30.011 
12:35	66.9	66.9	66.9	49	47.1	0	3	248	0.00	30.011 
12:40	67.1	67.1	67.1	49	47.3	0	1	248	0.00	30.011 
12:45	67.3	67.3	67.3	50	48.0	0	1	248	0.00	30.006 
12:50	67.4	67.4	67.4	50	48.1	0	3	248	0.00	30.006 
12:55	67.6	67.6	67.6	50	48.3	0	2	248	0.00	30.006 
13:00	67.8	67.8	67.8	47	46.8	0	2	248	0.00	30.002 
13:05	67.9	67.9	67.9	48	47.5	0	2	248	0.00	30.002 
13:10	68.1	68.1	68.1	47	47.1	1	4	112	0.00	30.002 
13:15	68.1	68.1	68.1	47	47.1	0	1	112	0.00	29.998 
13:20	68.3	68.3	68.3	48	47.8	0	3	112	0.00	29.998 
13:25	68.3	68.3	68.3	45	46.1	0	2	158	0.00	29.998 
13:30	68.4	68.4	68.4	47	47.4	0	3	180	0.00	29.995 
13:35	68.4	68.4	68.4	47	47.4	0	3	112	0.00	29.995 
13:40	68.4	68.4	68.4	46	46.8	1	3	112	0.00	29.995 
13:45	68.4	68.4	68.4	47	47.4	0	3	90	0.00	29.996 
13:50	68.6	68.6	68.6	48	48.1	0	1	90	0.00	29.996 
13:55	68.8	68.8	68.8	47	47.7	0	2	90	0.00	29.996 
14:00	68.8	68.8	68.8	45	46.6	1	5	90	0.00	29.994 
14:05	68.8	68.8	68.8	46	47.2	0	3	90	0.00	29.994 
14:10	68.9	68.9	68.9	46	47.3	0	2	90	0.00	29.994 
14:15	69.1	69.1	69.1	44	46.3	0	2	90	0.00	29.989 
14:20	69.1	69.1	69.1	43	45.7	1	5	90	0.00	29.989 
14:25	68.9	68.9	68.9	45	46.7	1	5	90	0.00	29.989 
14:30	68.8	68.8	68.8	45	46.6	1	4	90	0.00	29.987 
14:35	68.6	68.6	68.6	45	46.4	1	4	112	0.00	29.987 
14:40	68.8	68.8	68.8	46	47.2	0	3	90	0.00	29.987 
14:45	68.9	68.9	68.9	45	46.7	0	2	90	0.00	29.993 
14:50	68.9	68.9	68.9	45	46.7	0	3	292	0.00	29.993 
14:55	69.1	69.1	69.1	46	47.4	1	3	338	0.00	29.993 
15:00	69.1	69.1	69.1	46	47.4	1	4	90	0.00	29.992 
15:05	69.1	69.1	69.1	46	47.4	0	2	90	0.00	29.992 
15:10	69.1	69.1	69.1	45	46.9	0	3	90	0.00	29.992 
15:15	69.1	69.1	69.1	46	47.4	0	2	112	0.00	29.994 
15:20	68.9	68.9	68.9	44	46.1	1	3	112	0.00	29.994 
15:25	68.9	68.9	68.9	44	46.1	1	3	112	0.00	29.994 
15:30	68.8	68.8	68.8	44	46.0	1	3	112	0.00	29.985 
15:35	68.6	68.6	68.6	46	47.0	0	3	112	0.00	29.985 
15:40	68.6	68.6	68.6	44	45.8	0	3	112	0.00	29.985 
15:45	68.4	68.4	68.4	45	46.2	1	3	90	0.00	29.992 
15:50	68.4	68.4	68.4	46	46.8	0	1	90	0.00	29.992 
15:55	68.4	68.4	68.4	46	46.8	0	1	90	0.00	29.992 
16:00	68.4	68.4	68.4	46	46.8	0	2	90	0.00	29.998 
16:05	68.3	68.3	68.3	46	46.7	0	2	90	0.00	29.998 
16:10	68.3	68.3	68.3	47	47.3	0	2	90	0.00	29.998 
16:15	68.3	68.3	68.3	46	46.7	0	1	90	0.00	30.000 
16:20	68.4	68.4	68.4	46	46.8	0	2	90	0.00	30.000 
16:25	68.4	68.4	68.4	47	47.4	0	3	68	0.00	30.000 
16:30	68.1	68.1	68.1	48	47.7	0	1	68	0.00	29.999 
16:35	67.9	67.9	67.9	48	47.5	0	1	68	0.00	29.999 
16:40	67.6	67.6	67.6	48	47.2	0	2	68	0.00	29.999 
16:45	67.4	67.4	67.4	48	47.0	0	1	68	0.00	29.995 
16:50	67.3	67.3	67.3	48	46.9	0	0	---	0.00	29.995 
16:55	67.1	67.1	67.1	49	47.3	0	1	68	0.00	29.995 
17:00	66.9	66.9	66.9	49	47.1	0	0	---	0.00	30.000 
17:05	66.6	66.6	66.6	49	46.8	0	1	68	0.00	30.000 
17:10	66.4	66.4	66.4	49	46.7	0	0	---	0.00	30.000 
17:15	66.1	66.1	66.1	50	46.9	0	0	---	0.00	29.998 
17:20	65.6	65.6	65.6	50	46.5	0	0	---	0.00	29.998 
17:25	65.3	65.3	65.3	51	46.7	0	0	---	0.00	29.998 
17:30	64.8	64.8	64.8	52	46.8	0	0	---	0.00	29.999 
17:35	64.3	64.3	64.3	54	47.3	0	0	---	0.00	29.999 
17:40	63.5	63.5	63.5	56	47.5	0	0	---	0.00	29.999 
17:45	62.7	62.7	62.7	57	47.2	0	0	---	0.00	30.000 
17:50	62.0	62.0	62.0	58	47.0	0	0	---	0.00	30.000 
17:55	61.3	61.3	61.3	58	46.4	0	0	---	0.00	30.000 
18:00	60.9	60.9	60.9	60	46.9	0	0	---	0.00	30.009 
18:05	60.2	60.2	60.2	62	47.1	0	0	---	0.00	30.009 
18:10	59.8	59.8	59.8	62	46.8	0	0	---	0.00	30.009 
18:15	59.2	59.2	59.2	64	47.0	0	0	---	0.00	30.014 
18:20	58.7	58.7	58.7	64	46.6	0	0	---	0.00	30.014 
18:25	58.1	58.1	58.1	65	46.4	0	0	---	0.00	30.014 
18:30	57.6	57.6	57.6	66	46.3	0	0	---	0.00	30.022 
18:35	57.2	57.2	57.2	67	46.3	0	0	---	0.00	30.022 
18:40	56.7	56.7	56.7	69	46.6	0	0	---	0.00	30.022 
18:45	56.3	56.3	56.3	71	47.0	0	0	---	0.00	30.033 
18:50	55.9	55.9	55.9	71	46.6	0	0	---	0.00	30.033 
18:55	55.6	55.6	55.6	72	46.7	0	0	---	0.00	30.033 
19:00	55.3	55.3	55.3	73	46.8	0	0	---	0.00	30.034 
19:05	54.8	54.8	54.8	74	46.7	0	0	---	0.00	30.034 
19:10	54.5	54.5	54.5	76	47.1	0	0	---	0.00	30.034 
19:15	54.2	54.2	54.2	76	46.8	0	0	---	0.00	30.038 
19:20	53.9	53.9	53.9	77	46.9	0	0	---	0.00	30.038 
19:25	53.5	53.5	53.5	77	46.5	0	0	---	0.00	30.038 
19:30	53.3	53.3	53.3	78	46.6	0	0	---	0.00	30.042 
19:35	53.1	53.1	53.1	79	46.8	0	0	---	0.00	30.042 
19:40	52.8	52.8	52.8	79	46.5	0	0	---	0.00	30.042 
19:45	52.6	52.6	52.6	81	46.9	0	0	---	0.00	30.043 
19:50	52.3	52.3	52.3	81	46.6	0	0	---	0.00	30.043 
19:55	52.0	52.0	52.0	81	46.4	0	0	---	0.00	30.043 
20:00	51.7	51.7	51.7	81	46.1	0	0	---	0.00	30.046 
20:05	51.6	51.6	51.6	81	46.0	0	0	---	0.00	30.046 
20:10	51.3	51.3	51.3	82	46.0	0	0	---	0.00	30.046 
20:15	51.1	51.1	51.1	82	45.8	0	0	---	0.00	30.039 
20:20	50.8	50.8	50.8	82	45.5	0	0	---	0.00	30.039 
20:25	50.7	50.7	50.7	82	45.4	0	0	---	0.00	30.039 
20:30	50.4	50.4	50.4	83	45.4	0	0	---	0.00	30.039 
20:35	50.2	50.2	50.2	83	45.2	0	0	---	0.00	30.039 
20:40	49.9	49.9	49.9	84	45.3	0	0	---	0.00	30.039 
20:45	49.8	49.8	49.8	84	45.2	0	0	---	0.00	30.040 
20:50	49.6	49.6	49.6	85	45.3	0	0	---	0.00	30.040 
20:55	49.5	49.5	49.5	86	45.5	0	0	---	0.00	30.040 
21:00	49.4	49.4	49.4	86	45.4	0	0	---	0.00	30.040 
21:05	49.2	49.2	49.2	86	45.2	0	0	---	0.00	30.040 
21:10	49.1	49.1	49.1	86	45.1	0	0	---	0.00	30.040 
21:15	48.9	48.9	48.9	86	44.9	0	0	---	0.00	30.030 
21:20	48.8	48.8	48.8	87	45.1	0	0	---	0.00	30.030 
21:25	48.6	48.6	48.6	88	45.2	0	0	---	0.00	30.030 
21:30	48.6	48.6	48.6	88	45.2	0	0	---	0.00	30.030 
21:35	48.6	48.6	48.6	88	45.2	0	0	---	0.00	30.030 
21:40	48.5	48.5	48.5	88	45.1	0	0	---	0.00	30.030 
21:45	48.5	48.5	48.5	88	45.1	0	0	---	0.00	30.038 
21:50	48.3	48.3	48.3	88	44.9	0	0	---	0.00	30.038 
21:55	48.2	48.2	48.2	88	44.8	0	0	---	0.00	30.038 
22:00	48.0	48.0	48.0	88	44.6	0	0	---	0.00	30.039 
22:05	47.7	47.7	47.7	88	44.3	0	0	---	0.00	30.039 
22:10	47.6	47.6	47.6	88	44.2	0	0	---	0.00	30.039 
22:15	47.4	47.4	47.4	88	44.0	0	0	---	0.00	30.033 
22:20	47.1	47.1	47.1	88	43.7	0	0	---	0.00	30.033 
22:25	47.0	47.0	47.0	88	43.6	0	0	---	0.00	30.033 
22:30	47.0	47.0	47.0	89	43.9	0	0	---	0.00	30.037 
22:35	46.8	46.8	46.8	89	43.7	0	0	---	0.00	30.037 
22:40	46.8	46.8	46.8	89	43.7	0	0	---	0.00	30.037 
22:45	46.8	46.8	46.8	89	43.7	0	0	---	0.00	30.040 
22:50	46.8	46.8	46.8	89	43.7	0	0	---	0.00	30.040 
22:55	46.8	46.8	46.8	90	44.0	0	0	---	0.00	30.040 
23:00	46.7	46.7	46.7	90	43.9	0	0	---	0.00	30.039 
23:05	46.5	46.5	46.5	90	43.7	0	0	---	0.00	30.039 
23:10	46.4	46.4	46.4	90	43.6	0	0	---	0.00	30.039 
23:15	46.2	46.2	46.2	90	43.4	0	0	---	0.00	30.035 
23:20	46.2	46.2	46.2	90	43.4	0	0	---	0.00	30.035 
23:25	46.2	46.2	46.2	90	43.4	0	0	---	0.00	30.035 
23:30	46.2	46.2	46.2	90	43.4	0	0	---	0.00	30.038 
23:35	46.1	46.1	46.1	90	43.3	0	0	---	0.00	30.038 
23:40	46.0	46.0	46.0	91	43.5	0	0	---	0.00	30.038 
23:45	45.7	45.7	45.7	91	43.2	0	0	---	0.00	30.037 
23:50	45.7	45.7	45.7	91	43.2	0	0	---	0.00	30.037 
23:55	45.5	45.5	45.5	91	43.0	0	0	---	0.00	30.037 

CoCoRaHS
IN-AL-39
A2 Web Hosting
Creative Commons License
GoDaddy
search engine by freefind advanced

loaded 2018-11-19 18:41:10 • last modified 2010-11-18 10:43:29
Privacy PolicyDisclaimer
• wx.awcolley.com is powered by PmWiki v.2002016 •
• all content (unless otherwise noted) © 2018 A W Colley